createdAt,value
2023-02-06T00:00:07.839Z,66.20
2023-02-06T00:03:20.290Z,66.20
2023-02-06T00:06:22.565Z,66.20
2023-02-06T00:09:25.572Z,66.40
2023-02-06T00:12:28.178Z,66.00
2023-02-06T00:15:30.338Z,66.00
2023-02-06T00:18:33.481Z,66.20
2023-02-06T00:21:35.501Z,66.10
2023-02-06T00:24:37.487Z,66.00
2023-02-06T00:27:39.532Z,66.00
2023-02-06T00:30:41.508Z,66.00
2023-02-06T00:33:44.001Z,66.10
2023-02-06T00:36:46.051Z,66.10
2023-02-06T00:39:48.060Z,66.30
2023-02-06T00:42:50.059Z,66.30
2023-02-06T00:45:57.039Z,66.20
2023-02-06T00:48:59.120Z,66.30
2023-02-06T00:52:03.482Z,66.60
2023-02-06T00:55:07.472Z,66.60
2023-02-06T00:58:09.548Z,66.90
2023-02-06T01:01:11.579Z,67.10
2023-02-06T01:04:13.625Z,66.90
2023-02-06T01:07:15.751Z,66.80
2023-02-06T01:10:17.818Z,67.00
2023-02-06T01:13:20.488Z,66.90
2023-02-06T01:16:24.998Z,66.90
2023-02-06T01:19:27.050Z,66.70
2023-02-06T01:22:29.073Z,67.30
2023-02-06T01:25:31.158Z,67.10
2023-02-06T01:28:35.900Z,67.40
2023-02-06T01:31:38.006Z,67.70
2023-02-06T01:34:40.454Z,67.60
2023-02-06T01:37:44.368Z,67.80
2023-02-06T01:40:46.442Z,68.00
2023-02-06T01:44:12.812Z,67.90
2023-02-06T01:47:14.881Z,67.80
2023-02-06T01:50:17.261Z,67.80
2023-02-06T01:53:22.035Z,68.10
2023-02-06T01:56:25.555Z,68.20
2023-02-06T01:59:28.182Z,68.40
2023-02-06T02:02:33.911Z,68.40
2023-02-06T02:05:36.543Z,68.40
2023-02-06T02:08:45.387Z,68.60
2023-02-06T02:11:47.425Z,68.60
2023-02-06T02:14:52.097Z,69.00
2023-02-06T02:18:05.283Z,69.40
2023-02-06T02:21:21.841Z,69.50
2023-02-06T02:24:48.096Z,69.30
2023-02-06T02:28:24.268Z,69.70
2023-02-06T02:31:45.252Z,69.70
2023-02-06T02:34:56.231Z,70.20
2023-02-06T02:38:19.638Z,70.30
2023-02-06T02:41:42.602Z,70.70
2023-02-06T02:45:13.814Z,71.10
2023-02-06T02:48:28.391Z,71.40
2023-02-06T02:51:31.185Z,71.70
2023-02-06T02:54:33.189Z,72.40
2023-02-06T02:57:36.789Z,72.60
2023-02-06T03:00:55.558Z,72.90
2023-02-06T03:04:00.454Z,72.90
2023-02-06T03:07:10.274Z,73.10
2023-02-06T03:10:34.017Z,73.30
2023-02-06T03:13:44.200Z,73.10
2023-02-06T03:17:04.223Z,73.60
2023-02-06T03:20:09.075Z,73.30
2023-02-06T03:23:17.173Z,73.50
2023-02-06T03:26:22.906Z,73.30
2023-02-06T03:29:28.280Z,73.70
2023-02-06T03:32:34.537Z,74.30
2023-02-06T03:35:38.437Z,75.30
2023-02-06T03:38:40.726Z,75.50
2023-02-06T03:41:45.404Z,75.80
2023-02-06T03:44:59.662Z,76.20
2023-02-06T03:48:06.414Z,75.80
2023-02-06T03:51:31.094Z,75.30
2023-02-06T03:54:36.794Z,75.50
2023-02-06T03:57:39.751Z,74.90
2023-02-06T04:00:44.689Z,74.80
2023-02-06T04:03:46.714Z,74.80
2023-02-06T04:06:48.684Z,74.90
2023-02-06T04:09:51.207Z,75.00
2023-02-06T04:12:53.522Z,74.80
2023-02-06T04:15:56.462Z,74.60
2023-02-06T04:18:58.470Z,74.50
2023-02-06T04:22:00.891Z,74.70
2023-02-06T04:25:03.039Z,75.00
2023-02-06T04:28:05.516Z,74.90
2023-02-06T04:31:08.600Z,75.00
2023-02-06T04:34:10.756Z,74.90
2023-02-06T04:37:12.779Z,75.30
2023-02-06T04:40:14.805Z,75.10
2023-02-06T04:43:16.828Z,75.30
2023-02-06T04:46:19.898Z,75.30
2023-02-06T04:49:22.018Z,75.20
2023-02-06T04:52:24.358Z,75.30
2023-02-06T04:55:26.417Z,75.10
2023-02-06T04:58:28.470Z,74.90
2023-02-06T05:01:30.963Z,74.80
2023-02-06T05:04:34.184Z,74.90
2023-02-06T05:07:38.821Z,75.30
2023-02-06T05:10:41.797Z,75.00
2023-02-06T05:13:43.780Z,74.70
2023-02-06T05:16:46.477Z,75.20
2023-02-06T05:19:48.638Z,75.30
2023-02-06T05:22:50.717Z,75.40
2023-02-06T05:25:52.856Z,75.30
2023-02-06T05:28:54.954Z,75.20
2023-02-06T05:31:57.053Z,75.40
2023-02-06T05:34:59.325Z,75.10
2023-02-06T05:38:01.295Z,74.80
2023-02-06T05:41:03.644Z,74.40
2023-02-06T05:44:05.734Z,74.70
2023-02-06T05:47:07.730Z,74.80
2023-02-06T05:50:09.909Z,74.80
2023-02-06T05:53:12.018Z,75.20
2023-02-06T05:56:14.029Z,75.10
2023-02-06T05:59:16.134Z,75.10
2023-02-06T06:02:18.229Z,75.50
2023-02-06T06:05:21.432Z,75.70
2023-02-06T06:08:23.562Z,75.90
2023-02-06T06:11:25.613Z,76.20
2023-02-06T06:14:27.790Z,76.60
2023-02-06T06:17:29.816Z,77.70
2023-02-06T06:20:31.846Z,77.70
2023-02-06T06:23:33.943Z,77.60
2023-02-06T06:26:36.092Z,77.50
2023-02-06T06:29:38.362Z,77.40
2023-02-06T06:32:40.515Z,77.10
2023-02-06T06:35:42.940Z,77.00
2023-02-06T06:38:45.061Z,77.50
2023-02-06T06:41:47.111Z,76.60
2023-02-06T06:44:49.383Z,76.70
2023-02-06T06:47:51.529Z,76.70
2023-02-06T06:50:53.542Z,76.60
2023-02-06T06:53:56.970Z,76.90
2023-02-06T06:56:58.984Z,76.80
2023-02-06T07:00:02.003Z,77.20
2023-02-06T07:03:04.467Z,77.00
2023-02-06T07:06:06.745Z,77.20
2023-02-06T07:09:08.930Z,76.80
2023-02-06T07:12:10.955Z,76.80
2023-02-06T07:15:12.955Z,76.90
2023-02-06T07:18:15.998Z,77.00
2023-02-06T07:21:19.999Z,76.90
2023-02-06T07:24:22.025Z,76.90
2023-02-06T07:27:24.150Z,77.00
2023-02-06T07:30:27.096Z,77.00
2023-02-06T07:33:29.179Z,77.20
2023-02-06T07:36:31.484Z,77.20
2023-02-06T07:39:33.502Z,77.20
2023-02-06T07:42:37.526Z,76.80
2023-02-06T07:45:39.809Z,76.90
2023-02-06T07:48:42.636Z,76.90
2023-02-06T07:51:46.180Z,77.00
2023-02-06T07:54:49.159Z,77.10
2023-02-06T07:57:51.169Z,77.20
2023-02-06T08:00:54.875Z,78.20
2023-02-06T08:03:57.316Z,76.00
2023-02-06T08:06:59.402Z,72.00
2023-02-06T08:10:01.372Z,68.00
2023-02-06T08:13:03.492Z,64.00
2023-02-06T08:16:12.410Z,61.40
2023-02-06T08:19:14.618Z,58.50
2023-02-06T08:22:16.579Z,54.90
2023-02-06T08:25:18.739Z,53.10
2023-02-06T08:28:20.994Z,50.90
2023-02-06T08:31:26.075Z,46.80
2023-02-06T08:34:28.603Z,46.20
2023-02-06T08:37:31.968Z,46.90
2023-02-06T08:40:34.073Z,47.50
2023-02-06T08:43:36.115Z,45.90
2023-02-06T08:46:39.338Z,44.40
2023-02-06T08:49:41.570Z,44.40
2023-02-06T08:52:43.777Z,44.10
2023-02-06T08:55:45.920Z,42.60
2023-02-06T08:58:47.928Z,44.60
2023-02-06T09:01:50.035Z,43.20
2023-02-06T09:04:52.296Z,41.70
2023-02-06T09:07:54.313Z,41.40
2023-02-06T09:10:56.794Z,39.20
2023-02-06T09:14:00.662Z,36.90
2023-02-06T09:17:03.345Z,36.30
2023-02-06T09:20:05.997Z,32.30
2023-02-06T09:23:08.106Z,31.50
2023-02-06T09:26:11.856Z,29.80
2023-02-06T09:29:14.578Z,26.90
2023-02-06T09:32:16.878Z,27.20
2023-02-06T09:35:18.965Z,26.10
2023-02-06T09:38:22.367Z,25.00
2023-02-06T09:41:27.768Z,24.70
2023-02-06T09:44:30.277Z,26.00
2023-02-06T09:47:39.430Z,25.00
2023-02-06T09:51:03.945Z,23.20
2023-02-06T09:54:11.983Z,24.00
2023-02-06T09:57:42.104Z,23.40
2023-02-06T10:01:02.560Z,23.50
2023-02-06T10:04:13.021Z,22.90
2023-02-06T10:07:21.523Z,22.70
2023-02-06T10:10:38.994Z,23.10
2023-02-06T10:14:00.268Z,23.10
2023-02-06T10:17:26.026Z,24.30
2023-02-06T10:20:46.881Z,26.10
2023-02-06T10:24:01.003Z,27.80
2023-02-06T10:27:23.556Z,29.30
2023-02-06T10:30:52.648Z,30.00
2023-02-06T10:34:24.847Z,30.90
2023-02-06T10:37:58.141Z,29.50
2023-02-06T10:41:19.950Z,27.90
2023-02-06T10:44:31.867Z,27.50
2023-02-06T10:47:49.111Z,27.10
2023-02-06T10:51:03.944Z,26.80
2023-02-06T10:54:16.088Z,26.20
2023-02-06T10:57:21.973Z,25.40
2023-02-06T11:00:26.352Z,24.10
2023-02-06T11:03:32.038Z,24.10
2023-02-06T11:06:36.847Z,25.20
2023-02-06T11:09:38.835Z,23.90
2023-02-06T11:13:07.505Z,24.50
2023-02-06T11:16:16.528Z,24.40
2023-02-06T11:19:42.155Z,23.20
2023-02-06T11:22:52.337Z,23.20
2023-02-06T11:26:06.191Z,23.20
2023-02-06T11:29:27.748Z,23.70
2023-02-06T11:32:41.142Z,23.10
2023-02-06T11:35:56.071Z,24.30
2023-02-06T11:39:05.209Z,23.90
2023-02-06T11:42:20.066Z,24.60
2023-02-06T11:45:33.679Z,24.10
2023-02-06T11:48:45.188Z,24.20
2023-02-06T11:51:54.559Z,23.60
2023-02-06T11:55:01.842Z,24.60
2023-02-06T11:58:12.916Z,25.30
2023-02-06T12:01:21.011Z,25.40
2023-02-06T12:04:32.483Z,24.60
2023-02-06T12:07:55.815Z,26.60
2023-02-06T12:11:04.203Z,29.50
2023-02-06T12:14:31.366Z,33.60
2023-02-06T12:17:37.824Z,39.80
2023-02-06T12:20:52.750Z,39.00
2023-02-06T12:24:01.951Z,40.20
2023-02-06T12:27:18.538Z,43.90
2023-02-06T12:30:29.942Z,45.90
2023-02-06T12:33:48.444Z,45.30
2023-02-06T12:37:10.480Z,47.30
2023-02-06T12:40:31.194Z,48.90
2023-02-06T12:43:36.115Z,50.20
2023-02-06T12:46:39.395Z,50.60
2023-02-06T12:49:56.890Z,51.60
2023-02-06T12:53:10.604Z,52.80
2023-02-06T12:56:21.784Z,55.60
2023-02-06T12:59:56.996Z,54.70
2023-02-06T13:03:14.603Z,53.90
2023-02-06T13:06:25.637Z,54.00
2023-02-06T13:09:32.734Z,54.60
2023-02-06T13:12:40.645Z,57.50
2023-02-06T13:15:42.763Z,57.20
2023-02-06T13:18:45.671Z,57.00
2023-02-06T13:22:15.789Z,57.80
2023-02-06T13:25:29.707Z,57.80
2023-02-06T13:28:37.387Z,57.20
2023-02-06T13:31:39.535Z,57.60
2023-02-06T13:34:43.243Z,57.60
2023-02-06T13:37:48.248Z,58.20
2023-02-06T13:41:16.776Z,59.20
2023-02-06T13:44:25.385Z,59.50
2023-02-06T13:47:52.129Z,59.00
2023-02-06T13:51:07.149Z,59.70
2023-02-06T13:54:39.894Z,59.30
2023-02-06T13:58:09.970Z,59.70
2023-02-06T14:01:15.844Z,60.40
2023-02-06T14:04:38.168Z,61.50
2023-02-06T14:08:01.152Z,62.80
2023-02-06T14:11:34.539Z,64.80
2023-02-06T14:14:52.228Z,64.90
2023-02-06T14:18:19.552Z,65.70
2023-02-06T14:21:40.635Z,66.20
2023-02-06T14:24:42.631Z,69.00
2023-02-06T14:28:12.248Z,66.30
2023-02-06T14:31:33.414Z,62.90
2023-02-06T14:34:50.559Z,61.10
2023-02-06T14:38:18.401Z,60.40
2023-02-06T14:41:20.841Z,54.00
2023-02-06T14:44:30.686Z,49.30
2023-02-06T14:47:41.130Z,47.30
2023-02-06T14:50:49.402Z,46.40
2023-02-06T14:54:16.686Z,45.90
2023-02-06T14:57:26.335Z,47.40
2023-02-06T15:00:29.205Z,46.90
2023-02-06T15:03:31.457Z,47.40
2023-02-06T15:06:37.827Z,45.90
2023-02-06T15:09:44.269Z,44.10
2023-02-06T15:12:54.059Z,44.30
2023-02-06T15:15:57.259Z,44.60
2023-02-06T15:19:20.225Z,45.60
2023-02-06T15:22:29.159Z,46.90
2023-02-06T15:26:03.858Z,48.20
2023-02-06T15:29:19.152Z,48.90
2023-02-06T15:32:38.548Z,48.60
2023-02-06T15:35:48.546Z,46.90
2023-02-06T15:38:51.441Z,44.70
2023-02-06T15:41:54.196Z,43.90
2023-02-06T15:44:57.648Z,44.40
2023-02-06T15:48:18.176Z,44.80
2023-02-06T15:51:24.847Z,45.30
2023-02-06T15:54:27.918Z,45.10
2023-02-06T15:57:39.963Z,44.70
2023-02-06T16:00:42.210Z,43.90
2023-02-06T16:03:45.607Z,44.00
2023-02-06T16:07:17.605Z,41.60
2023-02-06T16:10:27.943Z,41.20
2023-02-06T16:13:32.711Z,40.00
2023-02-06T16:16:35.050Z,38.10
2023-02-06T16:19:52.227Z,38.40
2023-02-06T16:23:18.361Z,40.00
2023-02-06T16:26:25.585Z,41.30
2023-02-06T16:29:31.902Z,43.40
2023-02-06T16:32:35.571Z,45.30
2023-02-06T16:35:38.163Z,47.50
2023-02-06T16:38:42.003Z,48.80
2023-02-06T16:41:51.513Z,48.50
2023-02-06T16:45:10.408Z,48.50
2023-02-06T16:48:14.104Z,49.00
2023-02-06T16:51:18.660Z,49.30
2023-02-06T16:54:27.501Z,48.80
2023-02-06T16:57:39.482Z,49.50
2023-02-06T17:00:43.402Z,49.30
2023-02-06T17:03:45.442Z,49.60
2023-02-06T17:06:48.122Z,49.40
2023-02-06T17:09:51.887Z,48.90
2023-02-06T17:12:55.056Z,47.30
2023-02-06T17:15:57.369Z,47.60
2023-02-06T17:18:59.724Z,47.40
2023-02-06T17:22:01.769Z,47.00
2023-02-06T17:25:13.356Z,46.50
2023-02-06T17:28:22.507Z,46.40
2023-02-06T17:31:24.650Z,47.70
2023-02-06T17:34:27.577Z,48.30
2023-02-06T17:37:29.672Z,47.50
2023-02-06T17:40:34.108Z,47.60
2023-02-06T17:43:37.546Z,48.00
2023-02-06T17:46:39.987Z,48.30
2023-02-06T17:49:42.411Z,48.90
2023-02-06T17:52:44.535Z,50.30
2023-02-06T17:55:47.385Z,50.60
2023-02-06T17:58:49.834Z,50.80
2023-02-06T18:01:52.128Z,51.10
2023-02-06T18:04:54.471Z,51.00
2023-02-06T18:07:56.580Z,51.10
2023-02-06T18:10:58.918Z,52.20
2023-02-06T18:14:02.496Z,52.30
2023-02-06T18:17:06.824Z,52.80
2023-02-06T18:20:10.590Z,54.00
2023-02-06T18:23:12.795Z,55.90
2023-02-06T18:26:15.367Z,56.40
2023-02-06T18:29:17.594Z,57.30
2023-02-06T18:32:20.019Z,58.90
2023-02-06T18:35:22.137Z,59.30
2023-02-06T18:38:24.658Z,58.30
2023-02-06T18:41:45.190Z,60.20
2023-02-06T18:44:47.167Z,60.10
2023-02-06T18:47:51.734Z,59.40
2023-02-06T18:50:54.471Z,61.30
2023-02-06T18:54:00.578Z,61.80
2023-02-06T18:57:03.193Z,66.00
2023-02-06T19:00:07.583Z,66.00
2023-02-06T19:03:09.547Z,65.50
2023-02-06T19:06:17.488Z,68.80
2023-02-06T19:09:22.927Z,68.20
2023-02-06T19:12:28.322Z,68.50
2023-02-06T19:15:34.266Z,70.60
2023-02-06T19:18:39.631Z,72.60
2023-02-06T19:21:44.135Z,75.80
2023-02-06T19:24:46.259Z,74.00
2023-02-06T19:27:48.515Z,77.30
2023-02-06T19:30:51.800Z,78.00
2023-02-06T19:33:59.555Z,78.60
2023-02-06T19:37:02.338Z,79.70
2023-02-06T19:40:04.624Z,79.80
2023-02-06T19:43:06.682Z,82.10
2023-02-06T19:46:12.781Z,82.50
2023-02-06T19:49:15.801Z,82.10
2023-02-06T19:52:18.095Z,83.20
2023-02-06T19:55:20.221Z,82.00
2023-02-06T19:58:22.783Z,83.60
2023-02-06T20:01:26.028Z,84.20
2023-02-06T20:04:31.594Z,86.80
2023-02-06T20:07:35.453Z,86.40
2023-02-06T20:10:38.863Z,86.70
2023-02-06T20:13:41.745Z,88.30
2023-02-06T20:16:44.997Z,85.70
2023-02-06T20:19:47.304Z,86.30
2023-02-06T20:22:50.354Z,86.00
2023-02-06T20:25:53.064Z,87.30
2023-02-06T20:28:55.758Z,87.10
2023-02-06T20:31:58.722Z,88.50
2023-02-06T20:35:00.870Z,88.00
2023-02-06T20:38:03.020Z,89.20
2023-02-06T20:41:06.682Z,89.60
2023-02-06T20:44:10.919Z,90.00
2023-02-06T20:47:13.024Z,89.80
2023-02-06T20:50:16.829Z,89.70
2023-02-06T20:53:18.859Z,89.30
2023-02-06T20:56:21.858Z,89.40
2023-02-06T20:59:23.839Z,88.20
2023-02-06T21:02:25.902Z,90.20
2023-02-06T21:05:28.261Z,90.00
2023-02-06T21:08:30.415Z,89.60
2023-02-06T21:11:38.556Z,89.80
2023-02-06T21:14:41.821Z,89.80
2023-02-06T21:17:43.986Z,88.60
2023-02-06T21:20:46.609Z,90.00
2023-02-06T21:23:49.098Z,89.80
2023-02-06T21:26:52.164Z,90.10
2023-02-06T21:29:55.471Z,89.70
2023-02-06T21:32:57.503Z,89.60
2023-02-06T21:36:02.359Z,89.20
2023-02-06T21:39:05.057Z,89.40
2023-02-06T21:42:08.643Z,90.40
2023-02-06T21:45:10.658Z,89.40
2023-02-06T21:48:12.768Z,89.30
2023-02-06T21:51:17.185Z,88.80
2023-02-06T21:54:19.777Z,89.10
2023-02-06T21:57:22.879Z,87.90
2023-02-06T22:00:25.043Z,87.30
2023-02-06T22:03:27.120Z,86.90
2023-02-06T22:06:29.789Z,86.30
2023-02-06T22:09:31.854Z,86.30
2023-02-06T22:12:34.401Z,86.10
2023-02-06T22:15:36.924Z,86.00
2023-02-06T22:18:39.960Z,85.20
2023-02-06T22:21:42.717Z,85.30
2023-02-06T22:24:44.987Z,85.10
2023-02-06T22:27:47.343Z,84.80
2023-02-06T22:30:49.745Z,84.60
2023-02-06T22:33:53.190Z,84.60
2023-02-06T22:36:55.231Z,83.90
2023-02-06T22:39:57.382Z,83.30
2023-02-06T22:42:59.373Z,83.50
2023-02-06T22:46:01.767Z,83.30
2023-02-06T22:49:06.422Z,83.20
2023-02-06T22:52:31.357Z,82.30
2023-02-06T22:55:59.306Z,82.10
2023-02-06T22:59:13.395Z,80.80
2023-02-06T23:02:17.317Z,80.10
2023-02-06T23:05:23.586Z,79.50
2023-02-06T23:08:25.583Z,78.70
2023-02-06T23:11:28.749Z,78.20
2023-02-06T23:14:32.859Z,77.80
2023-02-06T23:17:34.961Z,77.40
2023-02-06T23:20:38.257Z,76.90
2023-02-06T23:23:41.440Z,76.50
2023-02-06T23:26:46.148Z,76.30
2023-02-06T23:29:48.254Z,76.10
2023-02-06T23:32:51.113Z,75.80
2023-02-06T23:35:53.256Z,75.70
2023-02-06T23:38:56.345Z,75.00
2023-02-06T23:41:58.371Z,74.70
2023-02-06T23:45:00.710Z,74.30
2023-02-06T23:48:02.843Z,74.00
2023-02-06T23:51:04.811Z,74.50
2023-02-06T23:54:08.681Z,73.20
2023-02-06T23:57:10.833Z,72.90
